Time;durP1;ratioP1;P1;durP2;ratioP2;P2;SDS_P1;SDS_P2;PMS_P1;PMS_P2;Temp;Humidity;BMP_temperature;BMP_pressure;BME280_temperature;BME280_humidity;BME280_pressure;Samples;Min_cycle;Max_cycle;Signal;HPM_P1;HPM_P2
2022/01/05 05:37:24;;;;;;;6.17;3.43;;;4.00;8.60;;;;;;6369404;27;20220;-56
2022/01/05 05:40:27;;;;;;;7.10;3.80;;;4.00;7.80;;;;;;6347733;27;20817;-58
2022/01/05 05:43:30;;;;;;;4.10;3.80;;;4.30;8.30;;;;;;6336442;27;20326;-56
2022/01/05 05:46:33;;;;;;;4.17;3.77;;;4.10;9.00;;;;;;6357690;27;20242;-56
2022/01/05 05:49:36;;;;;;;4.47;3.77;;;4.20;8.40;;;;;;6362766;27;20304;-55
2022/01/05 05:52:40;;;;;;;5.50;3.80;;;4.00;8.30;;;;;;6378051;27;20258;-56
2022/01/05 05:55:43;;;;;;;6.70;3.63;;;4.20;8.70;;;;;;6368881;27;20219;-57
2022/01/05 05:58:46;;;;;;;4.50;4.10;;;4.20;8.40;;;;;;6354597;27;20231;-57
2022/01/05 06:01:49;;;;;;;4.00;3.80;;;4.00;9.70;;;;;;6362349;27;21355;-56
2022/01/05 06:04:51;;;;;;;6.30;4.40;;;4.00;10.10;;;;;;6359032;27;20243;-56
2022/01/05 06:07:55;;;;;;;4.63;4.23;;;4.00;9.50;;;;;;6373589;27;20238;-57
2022/01/05 06:10:58;;;;;;;11.10;4.33;;;4.00;10.80;;;;;;6356859;27;20774;-55
2022/01/05 06:14:01;;;;;;;4.13;3.83;;;4.10;10.80;;;;;;6356510;27;20231;-57
2022/01/05 06:17:04;;;;;;;4.50;3.90;;;3.90;10.40;;;;;;6355931;27;20314;-56
2022/01/05 06:20:09;;;;;;;9.30;4.03;;;4.10;11.30;;;;;;6352525;27;20241;-57
2022/01/05 06:23:13;;;;;;;6.30;4.37;;;4.20;10.50;;;;;;6349629;27;20231;-57
2022/01/05 06:26:16;;;;;;;5.60;4.00;;;4.30;10.60;;;;;;6357907;27;20281;-63
2022/01/05 06:29:19;;;;;;;4.90;4.43;;;4.10;10.30;;;;;;6351834;27;20241;-61
2022/01/05 06:32:47;;;;;;;5.10;4.57;;;4.10;11.20;;;;;;6347928;27;20227;-58
2022/01/05 06:35:50;;;;;;;5.63;4.70;;;4.10;11.50;;;;;;6355189;27;20915;-58
2022/01/05 06:38:54;;;;;;;6.40;4.60;;;4.10;11.80;;;;;;6357387;27;20551;-58
2022/01/05 06:41:57;;;;;;;9.47;4.70;;;4.10;11.50;;;;;;6359634;27;20529;-57
2022/01/05 06:44:59;;;;;;;7.13;4.67;;;3.80;11.10;;;;;;6362196;27;20330;-57
2022/01/05 06:48:02;;;;;;;6.70;4.80;;;4.20;11.10;;;;;;6367629;27;20242;-58
2022/01/05 06:51:05;;;;;;;9.60;5.03;;;4.10;10.40;;;;;;6359808;27;20306;-57
2022/01/05 06:54:09;;;;;;;10.70;4.90;;;4.00;10.60;;;;;;6369125;27;20308;-56
2022/01/05 06:57:12;;;;;;;12.80;5.20;;;4.10;11.70;;;;;;6364614;27;20268;-56
2022/01/05 07:00:15;;;;;;;6.30;4.87;;;3.80;12.00;;;;;;6358580;27;20923;-58
2022/01/05 07:03:18;;;;;;;8.57;5.43;;;3.70;12.80;;;;;;6361739;27;20235;-59
2022/01/05 07:06:20;;;;;;;7.10;5.23;;;3.80;12.40;;;;;;6369831;27;20314;-57
2022/01/05 07:09:24;;;;;;;6.00;4.30;;;3.90;13.70;;;;;;6357574;27;20349;-56
2022/01/05 07:12:27;;;;;;;6.93;4.93;;;4.00;12.90;;;;;;6356707;27;20379;-58
2022/01/05 07:15:30;;;;;;;4.33;4.00;;;3.90;12.50;;;;;;6359628;27;20235;-58
2022/01/05 07:18:33;;;;;;;5.20;4.63;;;4.00;12.30;;;;;;6355329;27;20325;-57
2022/01/05 07:21:35;;;;;;;5.03;4.40;;;4.00;13.10;;;;;;6365280;27;20318;-57
2022/01/05 07:24:39;;;;;;;5.07;4.60;;;4.10;11.20;;;;;;6362475;27;20322;-58
2022/01/05 07:27:42;;;;;;;7.37;4.23;;;4.10;10.20;;;;;;6360532;27;20227;-57
2022/01/05 07:30:46;;;;;;;4.67;4.27;;;4.00;9.30;;;;;;6357285;27;20230;-57
2022/01/05 07:33:49;;;;;;;5.17;4.17;;;4.00;9.10;;;;;;6361762;27;20235;-56
2022/01/05 07:36:51;;;;;;;11.07;4.30;;;4.00;8.90;;;;;;6357045;27;20239;-57
2022/01/05 07:39:55;;;;;;;13.37;5.20;;;4.00;8.70;;;;;;6351760;27;20241;-58
2022/01/05 07:42:58;;;;;;;7.40;5.10;;;4.00;8.10;;;;;;6360803;27;20250;-57
2022/01/05 07:46:01;;;;;;;8.53;4.33;;;3.70;6.00;;;;;;6364004;27;20235;-58
2022/01/05 07:49:05;;;;;;;8.77;4.27;;;4.20;6.30;;;;;;6362533;27;20714;-56
2022/01/05 07:52:08;;;;;;;5.27;4.77;;;3.90;4.50;;;;;;6357469;27;20600;-57
2022/01/05 07:55:12;;;;;;;7.27;4.50;;;4.00;5.00;;;;;;6364813;27;20325;-58
2022/01/05 07:58:15;;;;;;;11.60;4.50;;;3.90;6.10;;;;;;6361102;27;20356;-58
2022/01/05 08:01:19;;;;;;;6.90;4.23;;;4.00;6.20;;;;;;6370704;27;20241;-57
2022/01/05 08:04:22;;;;;;;10.57;5.00;;;4.00;4.50;;;;;;6363910;27;20230;-58
2022/01/05 08:07:24;;;;;;;5.00;4.60;;;4.30;4.50;;;;;;6362726;27;20231;-58
2022/01/05 08:10:29;;;;;;;8.60;4.80;;;4.10;3.70;;;;;;6371058;27;20255;-58
2022/01/05 08:13:31;;;;;;;6.83;4.60;;;4.00;2.60;;;;;;6369143;27;20710;-58
2022/01/05 08:16:34;;;;;;;10.60;4.93;;;4.30;2.90;;;;;;6361214;27;20231;-60
2022/01/05 08:19:37;;;;;;;6.67;4.53;;;4.30;2.60;;;;;;6361267;27;20699;-58
2022/01/05 08:22:41;;;;;;;11.80;4.63;;;4.20;2.10;;;;;;6382423;27;20324;-57
2022/01/05 08:25:45;;;;;;;6.63;4.77;;;4.20;1.90;;;;;;6367962;27;20269;-57
2022/01/05 08:28:48;;;;;;;6.40;4.40;;;4.30;2.00;;;;;;6368279;27;20227;-57
2022/01/05 08:31:51;;;;;;;7.93;4.90;;;4.20;1.00;;;;;;6359419;27;20464;-57
2022/01/05 08:34:54;;;;;;;9.87;4.83;;;4.10;1.00;;;;;;6350404;27;20235;-57
2022/01/05 08:37:57;;;;;;;16.13;4.70;;;3.90;1.00;;;;;;6373275;27;20755;-56
2022/01/05 08:41:01;;;;;;;11.27;4.83;;;3.90;1.00;;;;;;6364005;27;20242;-55
2022/01/05 08:44:04;;;;;;;9.70;4.83;;;4.10;1.00;;;;;;6375517;27;20234;-57
2022/01/05 08:47:07;;;;;;;9.20;5.03;;;4.10;1.00;;;;;;6353834;27;20246;-57
2022/01/05 08:50:10;;;;;;;6.13;4.60;;;3.80;1.00;;;;;;6361661;27;20300;-57
2022/01/05 08:53:13;;;;;;;9.93;4.83;;;4.10;1.00;;;;;;6369592;27;20248;-57
2022/01/05 08:56:17;;;;;;;6.57;4.73;;;4.00;1.00;;;;;;6371674;27;20747;-57
2022/01/05 08:59:19;;;;;;;9.10;4.90;;;4.10;1.00;;;;;;6363035;27;20340;-58
2022/01/05 09:02:22;;;;;;;8.53;4.60;;;4.00;1.00;;;;;;6360358;27;20258;-57
2022/01/05 09:05:25;;;;;;;7.33;4.60;;;4.10;1.00;;;;;;6354768;27;20244;-57
2022/01/05 09:08:28;;;;;;;8.60;5.20;;;3.90;1.00;;;;;;6366607;27;20239;-56
2022/01/05 09:11:32;;;;;;;5.97;4.60;;;4.20;1.00;;;;;;6373401;27;20875;-57
2022/01/05 09:14:34;;;;;;;8.97;4.97;;;4.20;1.00;;;;;;6379179;27;20250;-57
2022/01/05 09:17:38;;;;;;;7.07;4.80;;;4.20;1.00;;;;;;6369538;27;20315;-57
2022/01/05 09:20:41;;;;;;;9.07;4.90;;;4.40;1.00;;;;;;6350535;27;20259;-58
2022/01/05 09:23:44;;;;;;;8.23;4.50;;;4.30;1.00;;;;;;6356277;27;20318;-58
2022/01/05 09:26:48;;;;;;;5.13;4.53;;;4.40;1.00;;;;;;6361707;27;20931;-58
2022/01/05 09:29:51;;;;;;;11.70;5.10;;;4.60;1.00;;;;;;6354192;27;20325;-57
2022/01/05 09:32:54;;;;;;;6.63;4.80;;;4.80;1.00;;;;;;6382068;27;20260;-57
2022/01/05 09:36:04;;;;;;;5.13;4.30;;;4.70;1.00;;;;;;6359528;27;20243;-55
2022/01/05 09:42:30;;;;;;;11.70;4.80;;;4.80;1.00;;;;;;6371840;27;21927;-57
2022/01/05 09:45:35;;;;;;;8.17;4.67;;;4.70;1.00;;;;;;6365256;27;20626;-54
2022/01/05 09:48:46;;;;;;;8.37;4.30;;;5.00;1.00;;;;;;6388280;27;20231;-58
2022/01/05 09:51:52;;;;;;;12.53;4.63;;;5.10;1.00;;;;;;6381965;27;20308;-58
2022/01/05 09:54:55;;;;;;;10.87;5.40;;;5.30;1.00;;;;;;6383772;27;20488;-58
2022/01/05 09:57:59;;;;;;;6.80;4.60;;;5.10;1.00;;;;;;6381876;27;20382;-58
2022/01/05 10:01:03;;;;;;;5.77;5.00;;;5.20;1.00;;;;;;6385653;27;20522;-56
2022/01/05 10:04:06;;;;;;;11.23;5.60;;;5.20;1.00;;;;;;6383573;27;20606;-57
2022/01/05 10:07:09;;;;;;;9.07;4.73;;;5.40;1.00;;;;;;6384735;27;20379;-57
2022/01/05 10:10:12;;;;;;;10.23;5.07;;;5.10;1.00;;;;;;6384642;27;20284;-58
2022/01/05 10:13:17;;;;;;;13.57;5.33;;;5.30;1.00;;;;;;6383796;27;20237;-56
2022/01/05 10:16:20;;;;;;;5.50;4.60;;;5.20;1.00;;;;;;6384560;27;20235;-57
2022/01/05 10:19:23;;;;;;;7.53;5.40;;;5.20;1.00;;;;;;6384235;27;20226;-59
2022/01/05 10:22:32;;;;;;;7.43;4.90;;;5.20;1.00;;;;;;6378655;27;21018;-57
2022/01/05 10:25:36;;;;;;;6.10;4.77;;;5.10;1.00;;;;;;6389713;27;20308;-58
2022/01/05 10:28:43;;;;;;;8.33;4.90;;;5.10;1.00;;;;;;6383128;27;20236;-58
2022/01/05 10:31:53;;;;;;;6.73;4.47;;;4.90;1.00;;;;;;6381546;27;20265;-57
2022/01/05 10:35:08;;;;;;;7.30;4.17;;;5.10;1.00;;;;;;6380373;27;20227;-57
2022/01/05 10:38:15;;;;;;;5.17;4.67;;;5.00;1.00;;;;;;6350092;27;20231;-56
2022/01/05 10:41:20;;;;;;;7.80;4.90;;;5.20;1.00;;;;;;6357575;27;20317;-57
2022/01/05 10:44:25;;;;;;;8.50;4.70;;;4.70;1.00;;;;;;6359097;27;20592;-57
2022/01/05 10:47:28;;;;;;;10.93;4.90;;;5.20;1.00;;;;;;6357889;27;20231;-57
2022/01/05 10:50:30;;;;;;;5.20;4.70;;;4.90;1.00;;;;;;6355409;27;20234;-57
2022/01/05 10:53:33;;;;;;;7.87;4.77;;;5.20;1.00;;;;;;6359164;27;20235;-58
2022/01/05 10:56:36;;;;;;;6.53;4.67;;;5.10;1.00;;;;;;6356036;27;20231;-57
2022/01/05 10:59:43;;;;;;;7.33;4.73;;;4.90;1.00;;;;;;6357658;27;20314;-56
2022/01/05 11:02:45;;;;;;;9.50;4.67;;;5.20;1.00;;;;;;6356503;27;20434;-58
2022/01/05 11:06:06;;;;;;;6.60;4.63;;;5.10;1.00;;;;;;6358475;27;20621;-57
2022/01/05 11:09:09;;;;;;;6.17;4.80;;;5.10;1.00;;;;;;6362464;27;20320;-57
2022/01/05 11:12:12;;;;;;;5.63;4.77;;;5.10;1.00;;;;;;6342933;27;20227;-59
2022/01/05 11:15:26;;;;;;;5.80;4.43;;;5.20;1.00;;;;;;6361376;27;20774;-57
2022/01/05 11:18:32;;;;;;;9.43;4.43;;;5.10;1.00;;;;;;6368610;27;20274;-59
2022/01/05 11:21:38;;;;;;;10.23;5.30;;;5.10;1.00;;;;;;6375705;27;20735;-57
2022/01/05 11:24:42;;;;;;;5.73;4.67;;;5.20;1.00;;;;;;6383324;27;20235;-56
2022/01/05 11:27:45;;;;;;;7.00;4.57;;;5.20;1.00;;;;;;6377897;27;20760;-53
2022/01/05 11:30:53;;;;;;;8.53;5.17;;;5.30;1.00;;;;;;6377696;27;20247;-58
2022/01/05 11:33:56;;;;;;;4.87;4.50;;;5.60;1.00;;;;;;6382141;27;20254;-59
2022/01/05 11:37:02;;;;;;;5.17;4.67;;;5.50;1.00;;;;;;6380662;27;20609;-56
2022/01/05 11:40:08;;;;;;;7.63;4.50;;;5.50;1.00;;;;;;6379932;27;20241;-58
2022/01/05 11:43:15;;;;;;;5.83;4.40;;;5.60;1.00;;;;;;6382888;27;20235;-58
2022/01/05 11:46:21;;;;;;;6.23;5.00;;;5.70;1.00;;;;;;6381632;27;20998;-56
2022/01/05 11:49:26;;;;;;;6.43;4.30;;;5.70;1.00;;;;;;6383851;27;20226;-57
2022/01/05 11:52:54;;;;;;;5.87;5.07;;;5.70;1.00;;;;;;6384244;27;20238;-57
2022/01/05 11:56:07;;;;;;;6.03;4.87;;;5.70;1.00;;;;;;6382215;27;20243;-59
2022/01/05 11:59:22;;;;;;;7.10;4.60;;;5.60;1.00;;;;;;6362669;27;20234;-56
2022/01/05 12:02:40;;;;;;;10.03;4.97;;;5.50;1.00;;;;;;6374115;27;20234;-56
2022/01/05 12:06:04;;;;;;;7.30;5.00;;;5.60;1.00;;;;;;6377204;27;20405;-57
2022/01/05 12:09:20;;;;;;;9.93;5.00;;;5.70;1.00;;;;;;6388979;27;20263;-57
2022/01/05 12:12:32;;;;;;;12.27;5.00;;;5.70;1.00;;;;;;6363373;27;20413;-57
2022/01/05 12:15:50;;;;;;;15.07;4.97;;;5.60;1.00;;;;;;6369421;27;20227;-57
2022/01/05 12:19:11;;;;;;;6.30;4.80;;;5.70;1.00;;;;;;6367443;27;20367;-58
2022/01/05 12:22:16;;;;;;;6.40;5.20;;;5.70;1.00;;;;;;6364893;27;20253;-58
2022/01/05 12:25:23;;;;;;;5.73;4.97;;;5.70;1.00;;;;;;6362500;27;20258;-57
2022/01/05 12:28:30;;;;;;;5.27;4.90;;;5.40;1.00;;;;;;6373857;27;20307;-58
2022/01/05 12:31:58;;;;;;;5.23;4.37;;;5.20;1.00;;;;;;6375647;27;20231;-57
2022/01/05 12:35:04;;;;;;;11.47;5.00;;;5.40;1.00;;;;;;6358151;27;20341;-57
2022/01/05 12:38:06;;;;;;;5.07;4.20;;;5.40;1.00;;;;;;6362015;27;20295;-57
2022/01/05 12:41:30;;;;;;;8.57;4.90;;;5.30;1.00;;;;;;6370833;27;20317;-57
2022/01/05 12:44:35;;;;;;;8.63;4.80;;;5.30;1.00;;;;;;6370750;27;20231;-57
2022/01/05 12:47:38;;;;;;;6.70;4.97;;;5.40;1.00;;;;;;6386276;27;20322;-57
2022/01/05 12:50:42;;;;;;;5.53;5.00;;;5.40;1.00;;;;;;6384641;27;20240;-56
2022/01/05 12:53:51;;;;;;;4.67;4.30;;;5.60;1.00;;;;;;6355490;27;20611;-55
2022/01/05 12:56:57;;;;;;;9.77;4.70;;;5.20;1.00;;;;;;6368685;27;20319;-57
2022/01/05 13:00:00;;;;;;;7.50;4.73;;;5.50;1.00;;;;;;6367699;27;20239;-59
2022/01/05 13:03:02;;;;;;;6.60;5.03;;;5.70;1.00;;;;;;6370094;27;20235;-57
2022/01/05 13:06:17;;;;;;;10.40;4.87;;;5.00;1.00;;;;;;6364983;27;20234;-59
2022/01/05 13:09:26;;;;;;;7.20;5.03;;;5.50;1.00;;;;;;6354975;27;20236;-56
2022/01/05 13:12:31;;;;;;;6.67;5.20;;;5.50;1.00;;;;;;6385136;27;20366;-56
2022/01/05 13:15:33;;;;;;;6.83;5.37;;;5.60;1.00;;;;;;6380514;27;20221;-58
2022/01/05 13:18:36;;;;;;;6.50;5.07;;;5.40;1.00;;;;;;6384943;27;20219;-57
2022/01/05 13:21:48;;;;;;;8.60;5.20;;;5.30;1.00;;;;;;6385891;27;20230;-56
2022/01/05 13:24:57;;;;;;;9.10;4.80;;;5.30;1.00;;;;;;6378984;27;20257;-57
2022/01/05 13:28:04;;;;;;;9.10;5.00;;;5.20;1.00;;;;;;6384188;27;20715;-57
2022/01/05 13:31:10;;;;;;;8.93;4.83;;;5.20;1.00;;;;;;6380130;27;20272;-57
2022/01/05 13:34:13;;;;;;;6.27;5.13;;;5.30;1.00;;;;;;6375976;27;20248;-56
2022/01/05 13:37:28;;;;;;;9.57;5.47;;;5.40;1.00;;;;;;6384521;27;20752;-57
2022/01/05 13:40:34;;;;;;;8.10;5.20;;;5.20;1.00;;;;;;6371183;27;20309;-56
2022/01/05 13:43:36;;;;;;;6.00;5.10;;;5.30;1.00;;;;;;6383245;27;20676;-57
2022/01/05 13:46:39;;;;;;;8.70;4.90;;;5.10;1.00;;;;;;6384820;27;20733;-57
2022/01/05 13:49:43;;;;;;;5.30;4.80;;;5.20;1.00;;;;;;6383740;27;20227;-56
2022/01/05 13:52:55;;;;;;;5.63;5.23;;;5.30;1.00;;;;;;6384744;27;20750;-57
2022/01/05 13:56:06;;;;;;;5.67;5.17;;;5.10;1.00;;;;;;6372743;27;20371;-57
2022/01/05 13:59:09;;;;;;;7.83;5.30;;;5.10;1.00;;;;;;6384684;27;20387;-56
2022/01/05 14:02:12;;;;;;;6.07;5.23;;;5.10;1.00;;;;;;6376377;27;20237;-57
2022/01/05 14:05:16;;;;;;;11.03;5.23;;;4.80;1.00;;;;;;6380849;27;20260;-58
2022/01/05 14:08:29;;;;;;;6.30;5.30;;;4.80;1.00;;;;;;6384276;27;20656;-58
2022/01/05 14:11:35;;;;;;;8.93;5.33;;;4.90;1.00;;;;;;6376809;27;20246;-57
2022/01/05 14:14:54;;;;;;;7.27;5.20;;;4.90;1.00;;;;;;6384264;27;20295;-57
2022/01/05 14:18:02;;;;;;;5.73;4.70;;;4.70;1.00;;;;;;6383461;27;20287;-58
2022/01/05 14:21:05;;;;;;;9.43;5.07;;;4.90;1.00;;;;;;6371162;27;20240;-56
2022/01/05 14:24:10;;;;;;;7.90;5.47;;;4.80;1.00;;;;;;6384929;27;20239;-57
2022/01/05 14:27:16;;;;;;;7.90;5.80;;;4.80;1.00;;;;;;6383345;27;20246;-58
2022/01/05 14:30:19;;;;;;;7.27;4.73;;;4.80;1.00;;;;;;6380498;27;20302;-57
2022/01/05 14:33:34;;;;;;;5.67;5.17;;;4.70;1.00;;;;;;6384137;27;20234;-57
2022/01/05 14:36:39;;;;;;;9.30;5.27;;;4.40;1.00;;;;;;6384068;27;20234;-57
2022/01/05 14:39:45;;;;;;;6.90;5.27;;;4.40;1.00;;;;;;6380000;27;20560;-57
2022/01/05 14:42:54;;;;;;;7.77;5.23;;;4.40;1.00;;;;;;6384213;27;20376;-57
2022/01/05 14:45:57;;;;;;;6.47;5.00;;;4.40;1.00;;;;;;6382007;27;20231;-57
2022/01/05 14:49:00;;;;;;;5.80;5.27;;;4.10;1.00;;;;;;6383881;27;20261;-56
2022/01/05 14:52:11;;;;;;;13.50;5.63;;;4.10;2.00;;;;;;6371379;27;20696;-50
2022/01/05 14:55:16;;;;;;;7.83;5.63;;;4.20;4.30;;;;;;6373413;27;20751;-57
2022/01/05 14:58:19;;;;;;;5.93;5.27;;;4.20;5.80;;;;;;6383250;27;20227;-57
2022/01/05 15:01:21;;;;;;;5.83;5.30;;;4.30;8.80;;;;;;6384491;27;20682;-56
2022/01/05 15:04:24;;;;;;;8.23;5.70;;;4.20;9.10;;;;;;6383319;27;20875;-56
2022/01/05 15:07:27;;;;;;;5.97;5.37;;;4.40;10.80;;;;;;6383975;27;20312;-57
2022/01/05 15:10:31;;;;;;;7.07;5.10;;;4.20;11.20;;;;;;6377527;27;20238;-57
2022/01/05 15:13:34;;;;;;;5.30;5.00;;;4.00;12.20;;;;;;6382549;27;20227;-56
2022/01/05 15:16:38;;;;;;;6.77;5.73;;;4.10;11.10;;;;;;6382204;27;20239;-57
2022/01/05 15:19:41;;;;;;;5.80;5.30;;;4.10;11.00;;;;;;6384441;27;20279;-58
2022/01/05 15:22:45;;;;;;;5.60;5.10;;;4.10;12.10;;;;;;6385973;27;20302;-58
2022/01/05 15:25:50;;;;;;;5.73;5.30;;;4.20;11.10;;;;;;6381286;27;20227;-57
2022/01/05 15:28:53;;;;;;;6.23;5.67;;;4.10;12.60;;;;;;6385051;27;20715;-58
2022/01/05 15:31:57;;;;;;;6.70;5.47;;;4.10;11.50;;;;;;6379792;27;20242;-56
2022/01/05 15:35:00;;;;;;;5.83;5.20;;;4.10;10.40;;;;;;6381653;27;20226;-56
2022/01/05 15:38:03;;;;;;;5.83;5.33;;;4.20;9.60;;;;;;6384737;27;20710;-57
2022/01/05 15:41:08;;;;;;;5.57;5.03;;;4.00;9.80;;;;;;6383309;27;20282;-57
2022/01/05 15:44:12;;;;;;;5.33;5.00;;;4.00;8.00;;;;;;6379580;27;20317;-56
2022/01/05 15:47:15;;;;;;;5.00;4.60;;;4.50;7.30;;;;;;6388519;27;20275;-56
2022/01/05 15:50:18;;;;;;;5.53;5.23;;;4.40;7.90;;;;;;6388631;27;20264;-57
2022/01/05 15:53:21;;;;;;;6.03;5.43;;;4.40;10.00;;;;;;6389029;27;20719;-57
2022/01/05 15:56:37;;;;;;;5.83;5.53;;;4.10;12.70;;;;;;6389760;27;20860;-57
2022/01/05 16:03:00;;;;;;;6.80;6.13;;;3.90;16.20;;;;;;6382733;27;20306;-57
2022/01/05 16:06:03;;;;;;;5.80;5.40;;;4.00;18.20;;;;;;6387808;27;20243;-56
2022/01/05 16:09:09;;;;;;;5.70;5.37;;;3.90;18.20;;;;;;6388407;27;20234;-56
2022/01/05 16:12:15;;;;;;;6.70;5.60;;;3.80;19.10;;;;;;6386734;27;20317;-56
2022/01/05 16:15:18;;;;;;;6.07;5.50;;;3.90;19.80;;;;;;6387595;27;20291;-56
2022/01/05 16:18:21;;;;;;;5.87;5.47;;;4.00;21.60;;;;;;6383703;27;20224;-56
2022/01/05 16:21:23;;;;;;;5.80;5.50;;;3.70;22.10;;;;;;6384152;27;20295;-58
2022/01/05 16:24:26;;;;;;;6.20;5.80;;;3.80;22.00;;;;;;6385034;27;20693;-56
2022/01/05 16:27:30;;;;;;;6.30;5.90;;;3.90;23.50;;;;;;6383892;27;20237;-56
2022/01/05 16:30:34;;;;;;;6.80;6.23;;;4.00;24.70;;;;;;6379127;27;20723;-58
2022/01/05 16:33:38;;;;;;;6.93;6.33;;;4.00;24.30;;;;;;6387834;27;20246;-57
2022/01/05 16:36:42;;;;;;;7.20;6.60;;;4.00;24.40;;;;;;6388960;27;20334;-57
2022/01/05 16:39:45;;;;;;;6.37;6.07;;;3.80;25.90;;;;;;6381673;27;20344;-56
2022/01/05 16:42:49;;;;;;;7.00;6.53;;;4.00;26.80;;;;;;6387176;27;20561;-56
2022/01/05 16:45:51;;;;;;;6.97;6.47;;;3.80;27.40;;;;;;6384955;27;20329;-56
2022/01/05 16:48:54;;;;;;;6.80;6.40;;;3.80;28.00;;;;;;6388375;27;20398;-57
2022/01/05 16:51:57;;;;;;;6.90;6.47;;;3.90;28.50;;;;;;6387750;27;20557;-56
2022/01/05 16:55:05;;;;;;;7.07;6.77;;;3.70;29.50;;;;;;6380981;27;20231;-56
2022/01/05 17:01:31;;;;;;;7.00;6.50;;;4.00;29.10;;;;;;6359336;27;20707;-56
2022/01/05 17:04:35;;;;;;;7.37;6.87;;;4.00;29.40;;;;;;6371238;27;20392;-57
2022/01/05 17:07:41;;;;;;;7.57;7.00;;;4.00;29.80;;;;;;6386747;27;20608;-56
2022/01/05 17:10:45;;;;;;;7.60;6.93;;;3.80;30.00;;;;;;6386505;27;20234;-52
2022/01/05 17:13:50;;;;;;;7.83;7.23;;;3.80;30.10;;;;;;6384915;27;20222;-58
2022/01/05 17:16:52;;;;;;;8.30;7.60;;;4.20;30.10;;;;;;6383241;27;20242;-57
2022/01/05 17:19:55;;;;;;;8.30;7.70;;;4.20;29.80;;;;;;6383722;27;20559;-57
2022/01/05 17:22:58;;;;;;;7.97;7.40;;;4.10;28.90;;;;;;6387094;27;20247;-57
2022/01/05 17:26:01;;;;;;;8.00;7.20;;;4.20;28.30;;;;;;6386676;27;20378;-57
2022/01/05 17:29:10;;;;;;;7.70;7.30;;;4.30;27.00;;;;;;6384337;27;20239;-57
2022/01/05 17:32:13;;;;;;;7.70;7.20;;;4.30;25.60;;;;;;6386125;27;20330;-56
2022/01/05 17:35:17;;;;;;;8.90;7.97;;;4.50;23.70;;;;;;6382895;27;20614;-59
2022/01/05 17:38:19;;;;;;;7.40;7.03;;;4.40;22.80;;;;;;6385117;27;20934;-58
2022/01/05 17:41:23;;;;;;;9.37;7.50;;;4.50;22.50;;;;;;6385624;27;20274;-58
2022/01/05 17:44:27;;;;;;;8.10;7.60;;;4.50;21.70;;;;;;6378626;27;20242;-56
2022/01/05 17:47:30;;;;;;;8.00;7.37;;;4.20;20.90;;;;;;6371702;27;20264;-58
2022/01/05 17:50:33;;;;;;;8.30;7.60;;;4.70;21.60;;;;;;6386181;27;20741;-57
2022/01/05 17:53:38;;;;;;;8.47;7.73;;;4.50;21.50;;;;;;6385224;27;20314;-57
2022/01/05 17:56:41;;;;;;;8.43;7.07;;;4.90;22.70;;;;;;6360433;27;20253;-58
2022/01/05 17:59:45;;;;;;;8.03;7.37;;;4.30;23.00;;;;;;6368933;27;20392;-56
2022/01/05 18:02:48;;;;;;;8.03;7.23;;;4.60;23.50;;;;;;6316337;27;20234;-58
2022/01/05 18:05:51;;;;;;;8.10;7.40;;;4.80;23.80;;;;;;6371749;27;20265;-57
2022/01/05 18:08:54;;;;;;;8.93;7.80;;;4.60;22.60;;;;;;6381434;27;20297;-56
2022/01/05 18:11:57;;;;;;;8.43;6.83;;;4.60;23.00;;;;;;6364358;27;20397;-54
2022/01/05 18:15:01;;;;;;;10.17;7.17;;;4.90;21.50;;;;;;6380549;27;20318;-55
2022/01/05 18:18:04;;;;;;;6.70;6.13;;;4.80;20.60;;;;;;6378951;27;20237;-57
2022/01/05 18:21:07;;;;;;;6.97;6.30;;;5.00;19.70;;;;;;6375534;27;20299;-56
2022/01/05 18:24:10;;;;;;;9.23;7.13;;;5.00;19.60;;;;;;6341497;27;20752;-57
2022/01/05 18:27:13;;;;;;;9.23;6.70;;;5.10;18.80;;;;;;6344235;27;20874;-57
2022/01/05 18:30:17;;;;;;;11.73;6.33;;;5.00;18.50;;;;;;6357800;27;20757;-57
2022/01/05 18:33:23;;;;;;;9.23;5.90;;;5.00;17.60;;;;;;6355051;27;20229;-57
2022/01/05 18:36:26;;;;;;;7.57;6.00;;;5.20;15.20;;;;;;6364534;27;20230;-57
2022/01/05 18:39:29;;;;;;;7.43;5.57;;;5.10;14.40;;;;;;6356139;27;20486;-57
2022/01/05 18:42:51;;;;;;;8.03;6.03;;;5.20;13.80;;;;;;6356174;27;20234;-56
2022/01/05 18:45:55;;;;;;;7.67;6.20;;;5.30;15.10;;;;;;6363291;27;20249;-56
2022/01/05 18:48:58;;;;;;;7.60;5.70;;;5.30;14.40;;;;;;6359206;27;20643;-56
2022/01/05 18:52:01;;;;;;;7.53;5.63;;;4.70;13.90;;;;;;6380385;27;20234;-58
2022/01/05 18:55:09;;;;;;;8.20;5.67;;;5.10;13.70;;;;;;6374726;27;20722;-56
2022/01/05 18:58:12;;;;;;;8.10;5.60;;;5.00;14.40;;;;;;6377129;27;20408;-56
2022/01/05 19:01:21;;;;;;;10.37;5.73;;;5.40;14.50;;;;;;6383839;27;20557;-56
2022/01/05 19:04:24;;;;;;;16.43;6.13;;;5.20;15.10;;;;;;6381661;27;20261;-56
2022/01/05 19:07:27;;;;;;;8.43;5.70;;;5.00;16.00;;;;;;6382376;27;20241;-57
2022/01/05 19:10:30;;;;;;;6.37;5.90;;;5.10;14.90;;;;;;6379683;27;20266;-56
2022/01/05 19:13:53;;;;;;;8.07;5.90;;;5.10;15.10;;;;;;6382896;27;20235;-57
2022/01/05 19:16:58;;;;;;;12.60;6.13;;;5.20;15.40;;;;;;6383970;27;20230;-57
2022/01/05 19:20:00;;;;;;;6.20;5.47;;;5.20;14.50;;;;;;6385953;27;20326;-56
2022/01/05 19:23:03;;;;;;;8.43;4.97;;;5.00;14.90;;;;;;6379799;27;20908;-57
2022/01/05 19:26:08;;;;;;;6.83;6.07;;;5.00;13.60;;;;;;6381415;27;20246;-56
2022/01/05 19:29:11;;;;;;;6.90;5.17;;;5.30;13.70;;;;;;6382254;27;20394;-56
2022/01/05 19:32:18;;;;;;;9.63;5.80;;;5.00;13.90;;;;;;6384228;27;20371;-58
2022/01/05 19:35:21;;;;;;;6.50;5.07;;;5.30;11.90;;;;;;6388579;27;20234;-56
2022/01/05 19:38:24;;;;;;;8.53;5.30;;;5.00;11.10;;;;;;6387943;27;20729;-56
2022/01/05 19:41:27;;;;;;;6.60;5.30;;;5.10;12.20;;;;;;6385593;27;20321;-56
2022/01/05 19:44:29;;;;;;;6.00;5.20;;;5.40;11.20;;;;;;6387280;27;20227;-56
2022/01/05 19:47:33;;;;;;;5.87;5.10;;;5.30;10.80;;;;;;6387479;27;20452;-57
2022/01/05 19:50:41;;;;;;;6.90;5.83;;;5.20;11.40;;;;;;6384894;27;20402;-54
2022/01/05 19:53:51;;;;;;;6.13;5.40;;;5.20;11.10;;;;;;6387780;27;20317;-56
2022/01/05 19:57:00;;;;;;;6.73;5.50;;;5.30;11.20;;;;;;6387802;27;20238;-58
2022/01/05 20:00:04;;;;;;;5.90;5.40;;;5.20;10.90;;;;;;6384853;27;20846;-57
2022/01/05 20:03:11;;;;;;;5.90;5.40;;;5.30;11.00;;;;;;6387735;27;20250;-56
2022/01/05 20:06:14;;;;;;;6.00;5.40;;;5.20;11.10;;;;;;6388078;27;20249;-57
2022/01/05 20:09:19;;;;;;;8.67;5.20;;;5.00;11.60;;;;;;6383441;27;20322;-57
2022/01/05 20:12:22;;;;;;;5.67;5.27;;;5.10;14.30;;;;;;6377442;27;20383;-57
2022/01/05 20:15:25;;;;;;;9.77;5.10;;;5.00;14.20;;;;;;6387507;27;20787;-57
2022/01/05 20:18:30;;;;;;;5.27;4.90;;;5.00;14.40;;;;;;6386835;27;20590;-57
2022/01/05 20:21:33;;;;;;;6.17;4.83;;;5.10;14.70;;;;;;6380562;27;20365;-58
2022/01/05 20:24:35;;;;;;;9.70;5.20;;;5.30;13.60;;;;;;6388318;27;20231;-57
2022/01/05 20:27:39;;;;;;;7.97;5.07;;;5.30;14.50;;;;;;6388289;27;20241;-56
2022/01/05 20:30:42;;;;;;;7.70;5.30;;;5.20;14.10;;;;;;6383858;27;20460;-57
2022/01/05 20:33:47;;;;;;;7.33;5.33;;;5.20;13.20;;;;;;6383882;27;20234;-57
2022/01/05 20:36:52;;;;;;;8.17;5.67;;;5.20;12.90;;;;;;6388094;27;20344;-56
2022/01/05 20:39:57;;;;;;;10.17;5.67;;;5.40;11.50;;;;;;6377563;27;20253;-58
2022/01/05 20:43:00;;;;;;;7.27;5.20;;;5.40;11.20;;;;;;6378139;27;20459;-56
2022/01/05 20:46:03;;;;;;;11.33;5.40;;;5.20;11.20;;;;;;6387565;27;20355;-57
2022/01/05 20:49:07;;;;;;;9.47;4.73;;;5.20;9.40;;;;;;6378401;27;20329;-57
2022/01/05 20:52:10;;;;;;;8.77;4.60;;;5.20;10.20;;;;;;6386018;27;20230;-57
2022/01/05 20:55:13;;;;;;;7.63;4.67;;;5.20;10.10;;;;;;6387099;27;20290;-57
2022/01/05 20:58:20;;;;;;;8.63;4.30;;;5.40;9.50;;;;;;6373465;27;20242;-57
2022/01/05 21:01:24;;;;;;;10.37;5.30;;;5.30;7.50;;;;;;6380494;27;20457;-57
2022/01/05 21:04:28;;;;;;;6.10;4.37;;;4.90;6.80;;;;;;6384992;27;20245;-51
2022/01/05 21:07:31;;;;;;;9.47;4.80;;;5.30;7.10;;;;;;6381733;27;20313;-57
2022/01/05 21:10:34;;;;;;;7.03;4.43;;;5.10;7.20;;;;;;6387439;27;20227;-56
2022/01/05 21:13:37;;;;;;;5.53;4.40;;;5.10;7.00;;;;;;6383117;27;20256;-56
2022/01/05 21:16:40;;;;;;;15.27;5.70;;;5.10;6.90;;;;;;6388260;27;20280;-57
2022/01/05 21:19:44;;;;;;;8.87;4.80;;;5.30;5.60;;;;;;6381992;27;20222;-57
2022/01/05 21:22:47;;;;;;;11.27;4.67;;;5.00;4.30;;;;;;6384961;27;20372;-57
2022/01/05 21:25:50;;;;;;;10.37;4.80;;;5.20;4.80;;;;;;6388063;27;20234;-57
2022/01/05 21:28:53;;;;;;;7.37;4.50;;;5.00;5.30;;;;;;6375458;27;20232;-57
2022/01/05 21:31:56;;;;;;;8.70;4.90;;;5.10;4.30;;;;;;6379722;27;20775;-57
2022/01/05 21:35:00;;;;;;;10.13;5.00;;;5.40;4.30;;;;;;6386605;27;20274;-56
2022/01/05 21:38:03;;;;;;;9.93;4.53;;;5.10;2.90;;;;;;6386558;27;20730;-58
2022/01/05 21:41:06;;;;;;;4.87;4.47;;;5.20;3.20;;;;;;6380602;27;20227;-62
2022/01/05 21:44:10;;;;;;;9.30;4.73;;;5.10;3.90;;;;;;6386676;27;20695;-57
2022/01/05 21:47:13;;;;;;;7.63;4.63;;;4.90;4.00;;;;;;6386411;27;20246;-57
2022/01/05 21:50:17;;;;;;;7.60;4.57;;;5.20;4.10;;;;;;6379357;27;20291;-57
2022/01/05 21:53:19;;;;;;;6.63;4.27;;;5.20;4.20;;;;;;6381007;27;20318;-57
2022/01/05 21:56:22;;;;;;;7.63;4.53;;;5.30;4.10;;;;;;6385549;27;20227;-57
2022/01/05 21:59:25;;;;;;;6.60;4.77;;;5.20;3.30;;;;;;6373942;27;20243;-57
2022/01/05 22:02:28;;;;;;;10.73;4.50;;;5.10;4.20;;;;;;6371026;27;20318;-57
2022/01/05 22:05:32;;;;;;;10.97;4.60;;;5.10;3.70;;;;;;6386224;27;20286;-58
2022/01/05 22:08:35;;;;;;;10.13;4.67;;;5.20;3.90;;;;;;6366579;27;20438;-57